createdAt,value
2022-12-27T00:00:13.919Z,2.00
2022-12-27T00:02:41.269Z,3.13
2022-12-27T00:05:09.523Z,1.73
2022-12-27T00:07:37.098Z,3.20
2022-12-27T00:10:04.806Z,2.05
2022-12-27T00:12:31.468Z,1.23
2022-12-27T00:14:58.019Z,2.50
2022-12-27T00:17:24.590Z,2.33
2022-12-27T00:19:51.239Z,1.55
2022-12-27T00:22:17.865Z,2.55
2022-12-27T00:24:44.442Z,1.70
2022-12-27T00:27:11.207Z,3.42
2022-12-27T00:29:37.900Z,3.45
2022-12-27T00:32:04.736Z,2.28
2022-12-27T00:34:31.384Z,2.55
2022-12-27T00:36:57.950Z,2.00
2022-12-27T00:39:24.614Z,1.63
2022-12-27T00:41:51.401Z,2.67
2022-12-27T00:44:17.968Z,1.88
2022-12-27T00:46:44.584Z,1.73
2022-12-27T00:49:11.284Z,3.40
2022-12-27T00:51:37.851Z,1.80
2022-12-27T00:54:04.474Z,3.35
2022-12-27T00:56:31.445Z,1.92
2022-12-27T00:59:04.912Z,3.22
2022-12-27T01:01:35.004Z,2.58
2022-12-27T01:04:02.275Z,1.70
2022-12-27T01:06:32.073Z,1.92
2022-12-27T01:09:00.724Z,3.13
2022-12-27T01:11:28.904Z,1.75
2022-12-27T01:14:00.804Z,1.60
2022-12-27T01:16:29.144Z,2.67
2022-12-27T01:18:56.931Z,1.88
2022-12-27T01:21:25.327Z,2.38
2022-12-27T01:23:52.206Z,1.65
2022-12-27T01:26:20.913Z,2.28
2022-12-27T01:28:48.630Z,2.13
2022-12-27T01:31:18.396Z,2.00
2022-12-27T01:33:45.500Z,2.78
2022-12-27T01:36:13.344Z,1.42
2022-12-27T01:38:42.660Z,1.50
2022-12-27T01:41:34.051Z,1.83
2022-12-27T01:44:00.737Z,1.80
2022-12-27T01:46:28.852Z,1.25
2022-12-27T01:48:55.966Z,1.10
2022-12-27T01:51:22.698Z,1.83
2022-12-27T01:53:50.896Z,1.65
2022-12-27T01:56:20.501Z,1.98
2022-12-27T01:58:47.034Z,1.73
2022-12-27T02:01:20.487Z,1.85
2022-12-27T02:03:54.050Z,1.45
2022-12-27T02:06:22.479Z,1.10
2022-12-27T02:09:02.422Z,1.85
2022-12-27T02:11:51.022Z,1.20
2022-12-27T02:14:28.621Z,1.67
2022-12-27T02:16:58.169Z,1.90
2022-12-27T02:19:36.782Z,2.20
2022-12-27T02:22:25.352Z,1.35
2022-12-27T02:25:16.100Z,1.00
2022-12-27T02:28:10.765Z,1.37
2022-12-27T02:30:37.859Z,1.23
2022-12-27T02:33:08.946Z,2.13
2022-12-27T02:35:42.878Z,2.28
2022-12-27T02:38:11.789Z,1.67
2022-12-27T02:41:01.077Z,1.70
2022-12-27T02:43:47.281Z,1.55
2022-12-27T02:46:46.559Z,0.68
2022-12-27T02:49:44.805Z,1.10
2022-12-27T02:53:04.500Z,1.60
2022-12-27T02:56:08.580Z,1.25
2022-12-27T02:59:13.384Z,0.95
2022-12-27T03:02:27.260Z,2.30
2022-12-27T03:05:08.876Z,1.20
2022-12-27T03:08:00.382Z,1.45
2022-12-27T03:11:11.000Z,1.10
2022-12-27T03:14:11.859Z,1.63
2022-12-27T03:16:55.898Z,1.92
2022-12-27T03:19:57.712Z,1.20
2022-12-27T03:22:46.354Z,1.25
2022-12-27T03:25:30.885Z,1.85
2022-12-27T03:28:31.598Z,1.67
2022-12-27T03:31:42.302Z,2.60
2022-12-27T03:34:31.534Z,2.05
2022-12-27T03:37:23.615Z,1.05
2022-12-27T03:40:14.710Z,0.80
2022-12-27T03:43:06.310Z,1.23
2022-12-27T03:46:00.475Z,1.17
2022-12-27T03:48:32.726Z,2.00
2022-12-27T03:51:04.995Z,1.40
2022-12-27T03:53:34.613Z,1.30
2022-12-27T03:56:01.401Z,0.75
2022-12-27T03:58:28.069Z,2.03
2022-12-27T04:00:54.761Z,2.73
2022-12-27T04:03:21.437Z,1.15
2022-12-27T04:05:48.152Z,0.90
2022-12-27T04:08:33.287Z,1.07
2022-12-27T04:11:18.833Z,2.03
2022-12-27T04:14:04.336Z,1.27
2022-12-27T04:16:49.850Z,1.10
2022-12-27T04:19:35.377Z,1.38
2022-12-27T04:22:20.764Z,1.85
2022-12-27T04:25:06.212Z,1.25
2022-12-27T04:27:51.754Z,0.57
2022-12-27T04:30:36.712Z,0.90
2022-12-27T04:33:22.249Z,1.55
2022-12-27T04:35:48.825Z,1.00
2022-12-27T04:38:15.541Z,1.00
2022-12-27T04:41:05.412Z,1.40
2022-12-27T04:43:50.880Z,0.60
2022-12-27T04:46:41.748Z,0.68
2022-12-27T04:49:44.515Z,0.98
2022-12-27T04:52:34.990Z,0.98
2022-12-27T04:55:24.803Z,1.10
2022-12-27T04:57:52.522Z,1.00
2022-12-27T05:00:39.859Z,1.70
2022-12-27T05:03:19.156Z,0.75
2022-12-27T05:05:47.346Z,1.38
2022-12-27T05:08:33.497Z,0.82
2022-12-27T05:11:18.969Z,1.13
2022-12-27T05:14:00.875Z,0.95
2022-12-27T05:16:34.576Z,1.05
2022-12-27T05:19:01.529Z,1.20
2022-12-27T05:21:28.373Z,0.68
2022-12-27T05:24:13.881Z,0.75
2022-12-27T05:26:40.695Z,0.70
2022-12-27T05:29:08.414Z,0.90
2022-12-27T05:31:35.358Z,1.00
2022-12-27T05:34:02.101Z,1.17
2022-12-27T05:36:29.088Z,0.70
2022-12-27T05:38:55.817Z,0.90
2022-12-27T05:41:22.402Z,0.80
2022-12-27T05:43:49.403Z,0.60
2022-12-27T05:46:21.682Z,1.98
2022-12-27T05:48:48.414Z,0.88
2022-12-27T05:51:17.213Z,1.48
2022-12-27T05:53:44.389Z,0.60
2022-12-27T05:56:19.254Z,1.15
2022-12-27T05:58:46.522Z,0.70
2022-12-27T06:01:16.186Z,1.17
2022-12-27T06:03:43.243Z,0.75
2022-12-27T06:06:10.387Z,0.52
2022-12-27T06:08:37.896Z,0.90
2022-12-27T06:11:08.906Z,0.55
2022-12-27T06:13:36.391Z,2.03
2022-12-27T06:16:04.914Z,1.17
2022-12-27T06:18:33.965Z,0.93
2022-12-27T06:21:03.334Z,0.60
2022-12-27T06:23:29.977Z,1.23
2022-12-27T06:25:56.613Z,0.50
2022-12-27T06:28:23.386Z,0.85
2022-12-27T06:30:50.641Z,0.90
2022-12-27T06:33:17.266Z,1.55
2022-12-27T06:35:43.872Z,1.17
2022-12-27T06:38:10.480Z,0.63
2022-12-27T06:40:37.064Z,1.27
2022-12-27T06:43:03.645Z,0.93
2022-12-27T06:45:30.290Z,0.53
2022-12-27T06:47:56.897Z,1.00
2022-12-27T06:50:23.609Z,0.68
2022-12-27T06:52:50.235Z,1.50
2022-12-27T06:55:16.845Z,0.77
2022-12-27T06:57:43.448Z,0.57
2022-12-27T07:00:13.204Z,0.90
2022-12-27T07:02:40.139Z,0.75
2022-12-27T07:05:07.175Z,1.10
2022-12-27T07:07:33.791Z,0.70
2022-12-27T07:10:00.368Z,1.02
2022-12-27T07:12:29.550Z,0.70
2022-12-27T07:14:59.793Z,1.00
2022-12-27T07:17:26.381Z,0.55
2022-12-27T07:19:52.975Z,0.68
2022-12-27T07:22:19.567Z,0.50
2022-12-27T07:24:46.224Z,1.00
2022-12-27T07:27:12.924Z,0.80
2022-12-27T07:29:45.310Z,0.93
2022-12-27T07:32:12.449Z,0.80
2022-12-27T07:34:39.058Z,0.77
2022-12-27T07:37:05.892Z,1.02
2022-12-27T07:39:32.493Z,1.08
2022-12-27T07:42:03.356Z,0.60
2022-12-27T07:44:34.458Z,2.85
2022-12-27T07:47:01.036Z,0.93
2022-12-27T07:49:28.207Z,1.40
2022-12-27T07:51:54.860Z,0.40
2022-12-27T07:54:21.517Z,0.83
2022-12-27T07:56:48.093Z,1.70
2022-12-27T07:59:15.153Z,1.17
2022-12-27T08:02:00.476Z,0.70
2022-12-27T08:04:27.225Z,0.60
2022-12-27T08:06:56.429Z,0.45
2022-12-27T08:09:30.237Z,0.40
2022-12-27T08:11:56.797Z,0.50
2022-12-27T08:14:24.486Z,1.75
2022-12-27T08:16:51.163Z,0.70
2022-12-27T08:19:17.776Z,0.60
2022-12-27T08:21:44.357Z,0.80
2022-12-27T08:24:11.014Z,0.60
2022-12-27T08:26:37.869Z,3.08
2022-12-27T08:29:04.454Z,0.77
2022-12-27T08:31:31.064Z,0.75
2022-12-27T08:33:58.811Z,0.77
2022-12-27T08:36:54.023Z,0.45
2022-12-27T08:39:12.388Z,0.60
2022-12-27T08:41:39.242Z,0.60
2022-12-27T08:44:07.049Z,1.02
2022-12-27T08:46:33.720Z,1.67
2022-12-27T08:49:00.541Z,0.73
2022-12-27T08:51:35.959Z,1.67
2022-12-27T08:54:07.374Z,0.50
2022-12-27T08:56:33.970Z,0.60
2022-12-27T08:59:00.687Z,0.47
2022-12-27T09:01:27.609Z,0.73
2022-12-27T09:03:54.386Z,0.80
2022-12-27T09:06:23.249Z,1.47
2022-12-27T09:08:50.963Z,0.60
2022-12-27T09:11:23.362Z,1.13
2022-12-27T09:13:50.346Z,1.02
2022-12-27T09:16:23.129Z,0.73
2022-12-27T09:18:52.092Z,1.38
2022-12-27T09:21:20.305Z,0.85
2022-12-27T09:23:48.755Z,0.43
2022-12-27T09:26:18.014Z,0.50
2022-12-27T09:28:46.458Z,1.23
2022-12-27T09:31:14.628Z,0.80
2022-12-27T09:33:42.017Z,1.33
2022-12-27T09:36:11.542Z,0.68
2022-12-27T09:38:39.182Z,1.17
2022-12-27T09:42:45.143Z,0.85
2022-12-27T09:44:52.401Z,0.82
2022-12-27T09:47:29.833Z,0.50
2022-12-27T09:50:04.061Z,1.42
2022-12-27T09:52:41.314Z,1.48
2022-12-27T09:55:41.732Z,2.78
2022-12-27T09:58:34.585Z,2.60
2022-12-27T10:01:02.446Z,1.52
2022-12-27T10:03:30.728Z,2.22
2022-12-27T10:06:12.707Z,0.95
2022-12-27T10:09:07.205Z,2.17
2022-12-27T10:11:47.568Z,1.83
2022-12-27T10:14:43.572Z,0.60
2022-12-27T10:17:56.722Z,0.63
2022-12-27T10:20:53.405Z,0.57
2022-12-27T10:23:28.208Z,1.73
2022-12-27T10:26:05.802Z,0.73
2022-12-27T10:28:47.695Z,1.67
2022-12-27T10:31:20.572Z,1.77
2022-12-27T10:33:48.273Z,1.40
2022-12-27T10:36:20.687Z,1.35
2022-12-27T10:38:47.400Z,1.58
2022-12-27T10:41:28.948Z,1.67
2022-12-27T10:43:55.848Z,2.30
2022-12-27T10:46:30.695Z,2.40
2022-12-27T10:49:22.998Z,1.75
2022-12-27T10:51:51.920Z,2.67
2022-12-27T10:54:29.682Z,2.38
2022-12-27T10:57:15.316Z,1.65
2022-12-27T10:59:42.030Z,1.67
2022-12-27T11:02:19.432Z,2.83
2022-12-27T11:04:57.890Z,3.42
2022-12-27T11:07:32.915Z,1.17
2022-12-27T11:10:21.106Z,1.48
2022-12-27T11:13:02.883Z,2.65
2022-12-27T11:15:37.926Z,1.33
2022-12-27T11:18:11.466Z,2.33
2022-12-27T11:20:43.275Z,3.70
2022-12-27T11:23:09.831Z,2.83
2022-12-27T11:25:51.071Z,1.50
2022-12-27T11:28:38.262Z,4.10
2022-12-27T11:31:12.696Z,3.22
2022-12-27T11:33:54.487Z,1.63
2022-12-27T11:36:28.609Z,1.52
2022-12-27T11:38:56.022Z,2.17
2022-12-27T11:41:42.585Z,6.07
2022-12-27T11:44:21.989Z,3.40
2022-12-27T11:46:59.453Z,2.47
2022-12-27T11:49:35.954Z,2.25
2022-12-27T11:52:35.379Z,1.60
2022-12-27T11:55:22.173Z,2.45
2022-12-27T11:58:00.736Z,2.92
2022-12-27T12:00:37.128Z,3.15
2022-12-27T12:03:35.277Z,1.92
2022-12-27T12:06:38.248Z,4.40
2022-12-27T12:09:10.482Z,6.22
2022-12-27T12:12:14.511Z,1.80
2022-12-27T12:14:50.513Z,1.45
2022-12-27T12:17:40.422Z,1.65
2022-12-27T12:20:12.280Z,2.05
2022-12-27T12:22:57.352Z,2.40
2022-12-27T12:25:48.883Z,2.95
2022-12-27T12:29:00.804Z,1.83
2022-12-27T12:31:49.515Z,1.00
2022-12-27T12:34:38.379Z,2.00
2022-12-27T12:37:50.328Z,2.95
2022-12-27T12:40:47.008Z,2.30
2022-12-27T12:43:35.163Z,2.20
2022-12-27T12:46:19.992Z,1.52
2022-12-27T12:49:08.319Z,2.50
2022-12-27T12:51:58.918Z,2.20
2022-12-27T12:54:37.086Z,1.90
2022-12-27T12:57:16.872Z,1.02
2022-12-27T12:59:46.267Z,1.02
2022-12-27T13:02:31.968Z,1.33
2022-12-27T13:05:33.430Z,1.70
2022-12-27T13:08:21.645Z,1.77
2022-12-27T13:11:39.015Z,3.88
2022-12-27T13:14:45.451Z,2.97
2022-12-27T13:17:18.301Z,1.17
2022-12-27T13:20:17.827Z,3.22
2022-12-27T13:22:44.472Z,1.70
2022-12-27T13:25:39.013Z,2.83
2022-12-27T13:28:39.130Z,2.65
2022-12-27T13:31:30.465Z,2.78
2022-12-27T13:34:31.325Z,1.77
2022-12-27T13:37:25.750Z,0.88
2022-12-27T13:40:07.286Z,1.85
2022-12-27T13:42:52.859Z,1.95
2022-12-27T13:45:51.968Z,2.72
2022-12-27T13:48:52.397Z,3.50
2022-12-27T13:51:42.183Z,1.38
2022-12-27T13:54:43.352Z,1.45
2022-12-27T13:57:18.482Z,1.58
2022-12-27T13:59:52.750Z,1.67
2022-12-27T14:02:38.099Z,0.88
2022-12-27T14:05:44.157Z,1.40
2022-12-27T14:08:10.714Z,0.95
2022-12-27T14:10:50.149Z,2.40
2022-12-27T14:13:36.151Z,1.83
2022-12-27T14:16:21.382Z,0.77
2022-12-27T14:19:03.075Z,1.48
2022-12-27T14:21:35.574Z,0.90
2022-12-27T14:24:15.933Z,1.10
2022-12-27T14:26:58.156Z,1.02
2022-12-27T14:29:42.132Z,1.15
2022-12-27T14:32:31.970Z,2.42
2022-12-27T14:35:17.908Z,1.90
2022-12-27T14:37:44.469Z,1.80
2022-12-27T14:40:43.591Z,1.95
2022-12-27T14:43:43.305Z,2.83
2022-12-27T14:46:28.531Z,1.65
2022-12-27T14:49:17.077Z,1.52
2022-12-27T14:52:10.275Z,1.30
2022-12-27T14:54:49.317Z,1.02
2022-12-27T14:57:47.749Z,0.95
2022-12-27T15:00:22.821Z,1.00
2022-12-27T15:03:00.882Z,2.15
2022-12-27T15:05:44.856Z,1.20
2022-12-27T15:08:26.293Z,0.80
2022-12-27T15:11:27.163Z,1.27
2022-12-27T15:14:03.743Z,0.50
2022-12-27T15:16:56.325Z,0.98
2022-12-27T15:20:00.617Z,0.63
2022-12-27T15:22:27.264Z,0.90
2022-12-27T15:25:19.901Z,2.60
2022-12-27T15:28:15.052Z,1.10
2022-12-27T15:31:03.629Z,0.65
2022-12-27T15:33:48.981Z,1.23
2022-12-27T15:36:17.817Z,1.73
2022-12-27T15:38:53.856Z,1.27
2022-12-27T15:41:24.387Z,1.40
2022-12-27T15:44:02.729Z,2.70
2022-12-27T15:46:41.412Z,1.20
2022-12-27T15:49:32.963Z,0.70
2022-12-27T15:52:02.653Z,0.80
2022-12-27T15:54:51.837Z,0.70
2022-12-27T15:57:53.641Z,0.65
2022-12-27T16:00:33.838Z,1.30
2022-12-27T16:03:03.263Z,0.95
2022-12-27T16:05:48.237Z,1.63
2022-12-27T16:08:26.313Z,2.67
2022-12-27T16:10:53.529Z,1.20
2022-12-27T16:13:37.619Z,0.60
2022-12-27T16:16:26.824Z,1.17
2022-12-27T16:19:40.167Z,0.80
2022-12-27T16:22:23.444Z,1.67
2022-12-27T16:24:50.395Z,1.90
2022-12-27T16:27:29.722Z,2.53
2022-12-27T16:29:57.452Z,1.15
2022-12-27T16:32:26.526Z,2.65
2022-12-27T16:34:55.627Z,1.55
2022-12-27T16:37:34.055Z,1.67
2022-12-27T16:40:22.825Z,1.05
2022-12-27T16:42:58.385Z,2.00
2022-12-27T16:45:39.988Z,2.42
2022-12-27T16:48:42.121Z,1.23
2022-12-27T16:51:36.053Z,0.50
2022-12-27T16:54:21.450Z,1.02
2022-12-27T16:56:49.117Z,1.27
2022-12-27T16:59:53.071Z,2.25
2022-12-27T17:02:40.612Z,0.65
2022-12-27T17:05:34.446Z,2.00
2022-12-27T17:08:00.978Z,1.48
2022-12-27T17:10:27.617Z,2.40
2022-12-27T17:13:08.553Z,1.98
2022-12-27T17:15:37.430Z,3.13
2022-12-27T17:18:25.726Z,4.00
2022-12-27T17:21:08.515Z,9.27
2022-12-27T17:23:43.270Z,8.63
2022-12-27T17:26:37.900Z,8.15
2022-12-27T17:29:37.867Z,11.48
2022-12-27T17:32:22.949Z,12.70
2022-12-27T17:35:11.777Z,10.82
2022-12-27T17:38:00.144Z,10.40
2022-12-27T17:40:37.185Z,12.13
2022-12-27T17:43:28.484Z,12.88
2022-12-27T17:46:28.661Z,13.20
2022-12-27T17:48:55.966Z,10.13
2022-12-27T17:51:28.731Z,11.05
2022-12-27T17:54:15.498Z,10.80
2022-12-27T17:57:15.260Z,9.93
2022-12-27T17:59:44.651Z,9.15
2022-12-27T18:02:11.229Z,8.57
2022-12-27T18:04:44.116Z,8.57
2022-12-27T18:07:14.508Z,8.63
2022-12-27T18:09:45.958Z,8.45
2022-12-27T18:12:18.809Z,7.75
2022-12-27T18:14:54.080Z,9.65
2022-12-27T18:17:29.389Z,8.45
2022-12-27T18:19:56.300Z,6.82
2022-12-27T18:22:22.958Z,8.38
2022-12-27T18:24:49.665Z,8.23
2022-12-27T18:27:19.203Z,6.60
2022-12-27T18:29:47.218Z,6.60
2022-12-27T18:32:17.363Z,8.20
2022-12-27T18:34:49.554Z,6.47
2022-12-27T18:37:20.974Z,6.40
2022-12-27T18:39:54.929Z,5.90
2022-12-27T18:42:27.253Z,7.78
2022-12-27T18:44:58.185Z,6.82
2022-12-27T18:47:27.145Z,5.50
2022-12-27T18:50:01.967Z,7.35
2022-12-27T18:52:34.694Z,5.38
2022-12-27T18:55:27.314Z,5.70
2022-12-27T18:58:06.545Z,5.80
2022-12-27T19:00:47.398Z,4.78
2022-12-27T19:03:19.179Z,5.45
2022-12-27T19:06:02.378Z,5.40
2022-12-27T19:08:34.648Z,5.45
2022-12-27T19:11:01.797Z,5.18
2022-12-27T19:13:35.279Z,5.82
2022-12-27T19:16:02.120Z,7.47
2022-12-27T19:18:33.190Z,5.82
2022-12-27T19:21:02.158Z,5.95
2022-12-27T19:23:43.105Z,4.50
2022-12-27T19:26:15.649Z,4.65
2022-12-27T19:28:58.312Z,3.97
2022-12-27T19:31:24.998Z,6.53
2022-12-27T19:33:55.708Z,7.38
2022-12-27T19:36:27.433Z,6.63
2022-12-27T19:38:54.722Z,5.90
2022-12-27T19:41:21.329Z,3.67
2022-12-27T19:43:47.951Z,3.90
2022-12-27T19:46:15.630Z,6.07
2022-12-27T19:48:42.299Z,3.92
2022-12-27T19:51:16.000Z,5.90
2022-12-27T19:53:46.015Z,5.80
2022-12-27T19:56:12.953Z,4.70
2022-12-27T19:58:39.566Z,4.25
2022-12-27T20:01:06.849Z,3.85
2022-12-27T20:03:33.560Z,3.65
2022-12-27T20:06:14.135Z,3.80
2022-12-27T20:08:48.433Z,4.18
2022-12-27T20:11:17.532Z,3.47
2022-12-27T20:13:44.486Z,5.68
2022-12-27T20:16:12.304Z,4.55
2022-12-27T20:18:43.514Z,5.45
2022-12-27T20:21:15.390Z,6.10
2022-12-27T20:23:42.041Z,4.18
2022-12-27T20:26:09.681Z,4.70
2022-12-27T20:28:36.736Z,4.63
2022-12-27T20:31:12.959Z,5.25
2022-12-27T20:33:39.658Z,4.63
2022-12-27T20:36:07.633Z,3.58
2022-12-27T20:38:34.496Z,3.92
2022-12-27T20:41:12.742Z,3.08
2022-12-27T20:43:39.961Z,3.38
2022-12-27T20:46:12.046Z,3.67
2022-12-27T20:48:42.856Z,3.85
2022-12-27T20:51:13.131Z,4.28
2022-12-27T20:53:39.758Z,3.55
2022-12-27T20:56:08.807Z,3.95
2022-12-27T20:58:35.469Z,6.10
2022-12-27T21:01:12.125Z,3.25
2022-12-27T21:03:39.785Z,4.38
2022-12-27T21:06:18.400Z,3.97
2022-12-27T21:08:50.539Z,3.13
2022-12-27T21:11:26.797Z,4.07
2022-12-27T21:13:53.420Z,3.67
2022-12-27T21:16:22.868Z,3.05
2022-12-27T21:18:50.041Z,2.75
2022-12-27T21:21:20.048Z,2.67
2022-12-27T21:23:47.698Z,3.20
2022-12-27T21:26:17.276Z,3.72
2022-12-27T21:28:44.320Z,2.42
2022-12-27T21:31:15.474Z,3.70
2022-12-27T21:33:42.491Z,3.88
2022-12-27T21:36:12.575Z,3.33
2022-12-27T21:38:39.777Z,3.25
2022-12-27T21:41:11.022Z,3.08
2022-12-27T21:43:37.746Z,3.00
2022-12-27T21:46:07.335Z,4.05
2022-12-27T21:48:34.741Z,2.20
2022-12-27T21:51:06.200Z,3.05
2022-12-27T21:53:33.126Z,2.92
2022-12-27T21:56:00.387Z,3.90
2022-12-27T21:58:30.130Z,3.65
2022-12-27T22:01:08.069Z,2.65
2022-12-27T22:03:37.225Z,3.15
2022-12-27T22:06:24.820Z,3.08
2022-12-27T22:08:53.773Z,3.00
2022-12-27T22:11:21.860Z,1.80
2022-12-27T22:13:48.922Z,2.40
2022-12-27T22:16:18.477Z,3.70
2022-12-27T22:18:45.653Z,2.45
2022-12-27T22:21:15.134Z,3.03
2022-12-27T22:23:45.206Z,3.45
2022-12-27T22:26:17.905Z,3.53
2022-12-27T22:28:45.316Z,2.80
2022-12-27T22:31:14.824Z,2.45
2022-12-27T22:33:41.913Z,2.47
2022-12-27T22:36:12.149Z,1.75
2022-12-27T22:38:40.651Z,2.22
2022-12-27T22:41:14.945Z,1.98
2022-12-27T22:43:42.933Z,1.88
2022-12-27T22:46:13.224Z,2.15
2022-12-27T22:48:40.963Z,2.53
2022-12-27T22:51:17.356Z,2.78
2022-12-27T22:53:44.002Z,2.55
2022-12-27T22:56:16.700Z,2.38
2022-12-27T22:58:43.644Z,1.70
2022-12-27T23:01:15.389Z,2.42
2022-12-27T23:03:42.508Z,2.95
2022-12-27T23:06:11.102Z,2.90
2022-12-27T23:08:42.055Z,2.50
2022-12-27T23:11:26.456Z,4.80
2022-12-27T23:14:01.582Z,2.60
2022-12-27T23:16:28.808Z,3.70
2022-12-27T23:18:55.505Z,2.35
2022-12-27T23:21:23.832Z,2.35
2022-12-27T23:23:51.069Z,3.03
2022-12-27T23:26:20.640Z,1.08
2022-12-27T23:28:48.448Z,2.20
2022-12-27T23:31:15.745Z,2.55
2022-12-27T23:33:43.857Z,2.42
2022-12-27T23:36:11.352Z,1.48
2022-12-27T23:38:38.272Z,2.05
2022-12-27T23:41:07.164Z,3.28
2022-12-27T23:43:55.728Z,2.80
2022-12-27T23:46:30.073Z,2.22
2022-12-27T23:48:58.638Z,1.52
2022-12-27T23:51:26.133Z,2.20
2022-12-27T23:53:52.770Z,3.08
2022-12-27T23:56:22.401Z,1.13
2022-12-27T23:58:50.178Z,2.67
